sensor_id;sensor_type;location;lat;lon;timestamp;P1;durP1;ratioP1;P2;durP2;ratioP2
17710;SDS011;8975;57.718;12.134;2023-02-04T00:02:22;245.37;;;0.00;;
17710;SDS011;8975;57.718;12.134;2023-02-04T00:04:47;245.67;;;0.00;;
17710;SDS011;8975;57.718;12.134;2023-02-04T00:07:13;245.40;;;0.00;;
17710;SDS011;8975;57.718;12.134;2023-02-04T00:09:38;244.77;;;0.00;;
17710;SDS011;8975;57.718;12.134;2023-02-04T00:12:04;246.13;;;0.00;;
17710;SDS011;8975;57.718;12.134;2023-02-04T00:14:29;246.63;;;0.00;;
17710;SDS011;8975;57.718;12.134;2023-02-04T00:16:55;245.57;;;0.00;;
17710;SDS011;8975;57.718;12.134;2023-02-04T00:19:20;246.50;;;0.00;;
17710;SDS011;8975;57.718;12.134;2023-02-04T00:21:45;246.40;;;0.00;;
17710;SDS011;8975;57.718;12.134;2023-02-04T00:24:11;248.10;;;0.00;;
17710;SDS011;8975;57.718;12.134;2023-02-04T00:26:36;246.00;;;0.00;;
17710;SDS011;8975;57.718;12.134;2023-02-04T00:29:02;246.03;;;0.00;;
17710;SDS011;8975;57.718;12.134;2023-02-04T00:31:27;246.23;;;0.00;;
17710;SDS011;8975;57.718;12.134;2023-02-04T00:33:52;247.97;;;0.00;;
17710;SDS011;8975;57.718;12.134;2023-02-04T00:36:18;248.00;;;0.00;;
17710;SDS011;8975;57.718;12.134;2023-02-04T00:38:43;246.97;;;0.00;;
17710;SDS011;8975;57.718;12.134;2023-02-04T00:41:09;246.67;;;0.00;;
17710;SDS011;8975;57.718;12.134;2023-02-04T00:43:34;246.47;;;0.00;;
17710;SDS011;8975;57.718;12.134;2023-02-04T00:45:59;245.90;;;0.00;;
17710;SDS011;8975;57.718;12.134;2023-02-04T00:48:25;245.73;;;0.00;;
17710;SDS011;8975;57.718;12.134;2023-02-04T00:50:50;245.67;;;0.00;;
17710;SDS011;8975;57.718;12.134;2023-02-04T00:53:17;244.95;;;0.00;;
17710;SDS011;8975;57.718;12.134;2023-02-04T00:55:42;246.23;;;0.00;;
17710;SDS011;8975;57.718;12.134;2023-02-04T00:58:07;244.93;;;0.00;;
17710;SDS011;8975;57.718;12.134;2023-02-04T01:00:33;242.57;;;0.00;;
17710;SDS011;8975;57.718;12.134;2023-02-04T01:02:58;245.07;;;0.00;;
17710;SDS011;8975;57.718;12.134;2023-02-04T01:05:24;242.75;;;0.00;;
17710;SDS011;8975;57.718;12.134;2023-02-04T01:07:49;243.10;;;0.00;;
17710;SDS011;8975;57.718;12.134;2023-02-04T01:10:14;241.57;;;0.00;;
17710;SDS011;8975;57.718;12.134;2023-02-04T01:12:43;241.43;;;0.00;;
17710;SDS011;8975;57.718;12.134;2023-02-04T01:15:09;239.90;;;0.00;;
17710;SDS011;8975;57.718;12.134;2023-02-04T01:17:34;239.63;;;0.00;;
17710;SDS011;8975;57.718;12.134;2023-02-04T01:20:00;240.90;;;0.00;;
17710;SDS011;8975;57.718;12.134;2023-02-04T01:22:25;240.27;;;0.00;;
17710;SDS011;8975;57.718;12.134;2023-02-04T01:24:51;239.80;;;0.00;;
17710;SDS011;8975;57.718;12.134;2023-02-04T01:27:16;240.30;;;0.00;;
17710;SDS011;8975;57.718;12.134;2023-02-04T01:29:42;239.95;;;0.00;;
17710;SDS011;8975;57.718;12.134;2023-02-04T01:32:07;240.48;;;0.00;;
17710;SDS011;8975;57.718;12.134;2023-02-04T01:34:33;240.20;;;0.00;;
17710;SDS011;8975;57.718;12.134;2023-02-04T01:36:58;242.73;;;0.00;;
17710;SDS011;8975;57.718;12.134;2023-02-04T01:39:24;244.90;;;0.00;;
17710;SDS011;8975;57.718;12.134;2023-02-04T01:41:49;243.10;;;0.00;;
17710;SDS011;8975;57.718;12.134;2023-02-04T01:44:14;243.40;;;0.00;;
17710;SDS011;8975;57.718;12.134;2023-02-04T01:46:40;245.32;;;0.00;;
17710;SDS011;8975;57.718;12.134;2023-02-04T01:49:06;244.20;;;0.00;;
17710;SDS011;8975;57.718;12.134;2023-02-04T01:51:31;243.73;;;0.00;;
17710;SDS011;8975;57.718;12.134;2023-02-04T01:53:57;243.93;;;0.00;;
17710;SDS011;8975;57.718;12.134;2023-02-04T01:56:24;243.05;;;0.00;;
17710;SDS011;8975;57.718;12.134;2023-02-04T01:58:51;242.80;;;0.00;;
17710;SDS011;8975;57.718;12.134;2023-02-04T02:04:06;248.63;;;0.00;;
17710;SDS011;8975;57.718;12.134;2023-02-04T02:06:32;248.43;;;0.00;;
17710;SDS011;8975;57.718;12.134;2023-02-04T02:08:58;306.08;;;0.00;;
17710;SDS011;8975;57.718;12.134;2023-02-04T02:11:25;0.15;;;0.00;;
17710;SDS011;8975;57.718;12.134;2023-02-04T02:13:51;220.03;;;0.00;;
17710;SDS011;8975;57.718;12.134;2023-02-04T02:16:17;225.07;;;0.00;;
17710;SDS011;8975;57.718;12.134;2023-02-04T02:18:42;245.90;;;0.00;;
17710;SDS011;8975;57.718;12.134;2023-02-04T02:21:08;257.75;;;0.00;;
17710;SDS011;8975;57.718;12.134;2023-02-04T02:26:25;247.67;;;0.00;;
17710;SDS011;8975;57.718;12.134;2023-02-04T02:28:51;241.65;;;0.00;;
17710;SDS011;8975;57.718;12.134;2023-02-04T02:31:18;245.05;;;0.00;;
17710;SDS011;8975;57.718;12.134;2023-02-04T02:33:45;243.60;;;0.00;;
17710;SDS011;8975;57.718;12.134;2023-02-04T02:36:11;244.30;;;0.00;;
17710;SDS011;8975;57.718;12.134;2023-02-04T02:38:37;242.47;;;0.00;;
17710;SDS011;8975;57.718;12.134;2023-02-04T02:41:03;242.63;;;0.00;;
17710;SDS011;8975;57.718;12.134;2023-02-04T02:43:29;0.15;;;0.00;;
17710;SDS011;8975;57.718;12.134;2023-02-04T02:45:57;217.30;;;0.00;;
17710;SDS011;8975;57.718;12.134;2023-02-04T02:48:23;0.20;;;0.00;;
17710;SDS011;8975;57.718;12.134;2023-02-04T02:50:49;0.40;;;0.00;;
17710;SDS011;8975;57.718;12.134;2023-02-04T02:53:15;0.20;;;0.00;;
17710;SDS011;8975;57.718;12.134;2023-02-04T02:55:43;0.47;;;0.00;;
17710;SDS011;8975;57.718;12.134;2023-02-04T02:58:14;0.83;;;0.00;;
17710;SDS011;8975;57.718;12.134;2023-02-04T03:01:01;0.30;;;0.00;;
17710;SDS011;8975;57.718;12.134;2023-02-04T03:03:29;0.83;;;0.00;;
17710;SDS011;8975;57.718;12.134;2023-02-04T03:06:01;0.50;;;0.00;;
17710;SDS011;8975;57.718;12.134;2023-02-04T03:08:36;1.10;;;0.00;;
17710;SDS011;8975;57.718;12.134;2023-02-04T03:11:03;0.50;;;0.00;;
17710;SDS011;8975;57.718;12.134;2023-02-04T03:13:29;0.30;;;0.00;;
17710;SDS011;8975;57.718;12.134;2023-02-04T03:15:55;0.50;;;0.00;;
17710;SDS011;8975;57.718;12.134;2023-02-04T03:18:21;0.30;;;0.00;;
17710;SDS011;8975;57.718;12.134;2023-02-04T03:20:47;0.57;;;0.00;;
17710;SDS011;8975;57.718;12.134;2023-02-04T03:23:14;0.40;;;0.00;;
17710;SDS011;8975;57.718;12.134;2023-02-04T03:25:40;0.40;;;0.00;;
17710;SDS011;8975;57.718;12.134;2023-02-04T03:28:07;0.57;;;0.00;;
17710;SDS011;8975;57.718;12.134;2023-02-04T03:30:33;0.50;;;0.00;;
17710;SDS011;8975;57.718;12.134;2023-02-04T03:32:58;0.40;;;0.00;;
17710;SDS011;8975;57.718;12.134;2023-02-04T03:35:24;0.30;;;0.00;;
17710;SDS011;8975;57.718;12.134;2023-02-04T03:37:49;0.60;;;0.00;;
17710;SDS011;8975;57.718;12.134;2023-02-04T03:40:15;1.07;;;0.00;;
17710;SDS011;8975;57.718;12.134;2023-02-04T03:42:41;0.47;;;0.00;;
17710;SDS011;8975;57.718;12.134;2023-02-04T03:45:06;0.30;;;0.00;;
17710;SDS011;8975;57.718;12.134;2023-02-04T03:47:32;0.93;;;0.00;;
17710;SDS011;8975;57.718;12.134;2023-02-04T03:49:57;0.30;;;0.00;;
17710;SDS011;8975;57.718;12.134;2023-02-04T03:52:23;1.23;;;0.00;;
17710;SDS011;8975;57.718;12.134;2023-02-04T03:54:48;0.73;;;0.00;;
17710;SDS011;8975;57.718;12.134;2023-02-04T03:57:14;0.43;;;0.00;;
17710;SDS011;8975;57.718;12.134;2023-02-04T03:59:42;0.43;;;0.00;;
17710;SDS011;8975;57.718;12.134;2023-02-04T04:02:08;0.57;;;0.00;;
17710;SDS011;8975;57.718;12.134;2023-02-04T04:04:33;0.70;;;0.00;;
17710;SDS011;8975;57.718;12.134;2023-02-04T04:06:59;0.43;;;0.00;;
17710;SDS011;8975;57.718;12.134;2023-02-04T04:09:24;0.40;;;0.00;;
17710;SDS011;8975;57.718;12.134;2023-02-04T04:11:50;0.20;;;0.00;;
17710;SDS011;8975;57.718;12.134;2023-02-04T04:14:15;0.40;;;0.00;;
17710;SDS011;8975;57.718;12.134;2023-02-04T04:16:41;0.20;;;0.00;;
17710;SDS011;8975;57.718;12.134;2023-02-04T04:19:06;0.50;;;0.00;;
17710;SDS011;8975;57.718;12.134;2023-02-04T04:21:32;0.83;;;0.00;;
17710;SDS011;8975;57.718;12.134;2023-02-04T04:23:57;0.50;;;0.00;;
17710;SDS011;8975;57.718;12.134;2023-02-04T04:26:22;0.50;;;0.00;;
17710;SDS011;8975;57.718;12.134;2023-02-04T04:28:48;0.90;;;0.00;;
17710;SDS011;8975;57.718;12.134;2023-02-04T04:31:13;0.20;;;0.00;;
17710;SDS011;8975;57.718;12.134;2023-02-04T04:33:39;0.50;;;0.00;;
17710;SDS011;8975;57.718;12.134;2023-02-04T04:36:05;0.50;;;0.00;;
17710;SDS011;8975;57.718;12.134;2023-02-04T04:38:31;0.30;;;0.00;;
17710;SDS011;8975;57.718;12.134;2023-02-04T04:40:56;0.40;;;0.00;;
17710;SDS011;8975;57.718;12.134;2023-02-04T04:43:22;0.60;;;0.00;;
17710;SDS011;8975;57.718;12.134;2023-02-04T04:45:47;0.67;;;0.00;;
17710;SDS011;8975;57.718;12.134;2023-02-04T04:48:13;0.40;;;0.00;;
17710;SDS011;8975;57.718;12.134;2023-02-04T04:50:38;0.60;;;0.00;;
17710;SDS011;8975;57.718;12.134;2023-02-04T04:53:04;0.40;;;0.00;;
17710;SDS011;8975;57.718;12.134;2023-02-04T04:55:35;0.20;;;0.00;;
17710;SDS011;8975;57.718;12.134;2023-02-04T04:58:04;0.30;;;0.00;;
17710;SDS011;8975;57.718;12.134;2023-02-04T05:00:31;0.60;;;0.00;;
17710;SDS011;8975;57.718;12.134;2023-02-04T05:02:56;0.40;;;0.00;;
17710;SDS011;8975;57.718;12.134;2023-02-04T05:05:22;0.47;;;0.00;;
17710;SDS011;8975;57.718;12.134;2023-02-04T05:07:47;0.67;;;0.00;;
17710;SDS011;8975;57.718;12.134;2023-02-04T05:10:13;0.20;;;0.00;;
17710;SDS011;8975;57.718;12.134;2023-02-04T05:12:38;0.80;;;0.00;;
17710;SDS011;8975;57.718;12.134;2023-02-04T05:15:04;0.80;;;0.00;;
17710;SDS011;8975;57.718;12.134;2023-02-04T05:17:29;0.27;;;0.00;;
17710;SDS011;8975;57.718;12.134;2023-02-04T05:19:55;0.87;;;0.00;;
17710;SDS011;8975;57.718;12.134;2023-02-04T05:22:20;0.30;;;0.00;;
17710;SDS011;8975;57.718;12.134;2023-02-04T05:24:46;0.30;;;0.00;;
17710;SDS011;8975;57.718;12.134;2023-02-04T05:27:11;0.83;;;0.00;;
17710;SDS011;8975;57.718;12.134;2023-02-04T05:29:36;0.30;;;0.00;;
17710;SDS011;8975;57.718;12.134;2023-02-04T05:32:02;0.70;;;0.00;;
17710;SDS011;8975;57.718;12.134;2023-02-04T05:34:27;0.33;;;0.00;;
17710;SDS011;8975;57.718;12.134;2023-02-04T05:36:53;0.80;;;0.00;;
17710;SDS011;8975;57.718;12.134;2023-02-04T05:39:18;0.20;;;0.00;;
17710;SDS011;8975;57.718;12.134;2023-02-04T05:41:44;0.20;;;0.00;;
17710;SDS011;8975;57.718;12.134;2023-02-04T05:44:09;0.50;;;0.00;;
17710;SDS011;8975;57.718;12.134;2023-02-04T05:46:34;0.20;;;0.00;;
17710;SDS011;8975;57.718;12.134;2023-02-04T05:49:00;0.20;;;0.00;;
17710;SDS011;8975;57.718;12.134;2023-02-04T05:51:26;0.60;;;0.00;;
17710;SDS011;8975;57.718;12.134;2023-02-04T05:53:51;0.50;;;0.00;;
17710;SDS011;8975;57.718;12.134;2023-02-04T05:56:16;0.40;;;0.00;;
17710;SDS011;8975;57.718;12.134;2023-02-04T05:58:42;0.27;;;0.00;;
17710;SDS011;8975;57.718;12.134;2023-02-04T06:01:08;0.27;;;0.00;;
17710;SDS011;8975;57.718;12.134;2023-02-04T06:03:33;0.30;;;0.00;;
17710;SDS011;8975;57.718;12.134;2023-02-04T06:05:59;0.30;;;0.00;;
17710;SDS011;8975;57.718;12.134;2023-02-04T06:08:24;0.40;;;0.00;;
17710;SDS011;8975;57.718;12.134;2023-02-04T06:10:50;1.03;;;0.00;;
17710;SDS011;8975;57.718;12.134;2023-02-04T06:13:15;0.20;;;0.00;;
17710;SDS011;8975;57.718;12.134;2023-02-04T06:15:41;0.50;;;0.00;;
17710;SDS011;8975;57.718;12.134;2023-02-04T06:18:06;0.70;;;0.00;;
17710;SDS011;8975;57.718;12.134;2023-02-04T06:20:32;0.10;;;0.00;;
17710;SDS011;8975;57.718;12.134;2023-02-04T06:22:57;0.50;;;0.00;;
17710;SDS011;8975;57.718;12.134;2023-02-04T06:25:23;0.50;;;0.00;;
17710;SDS011;8975;57.718;12.134;2023-02-04T06:27:49;0.30;;;0.00;;
17710;SDS011;8975;57.718;12.134;2023-02-04T06:30:14;0.40;;;0.00;;
17710;SDS011;8975;57.718;12.134;2023-02-04T06:32:40;0.30;;;0.00;;
17710;SDS011;8975;57.718;12.134;2023-02-04T06:35:06;0.40;;;0.00;;
17710;SDS011;8975;57.718;12.134;2023-02-04T06:37:32;0.23;;;0.00;;
17710;SDS011;8975;57.718;12.134;2023-02-04T06:39:58;0.23;;;0.00;;
17710;SDS011;8975;57.718;12.134;2023-02-04T06:42:23;0.30;;;0.00;;
17710;SDS011;8975;57.718;12.134;2023-02-04T06:44:49;0.30;;;0.00;;
17710;SDS011;8975;57.718;12.134;2023-02-04T06:47:16;0.30;;;0.00;;
17710;SDS011;8975;57.718;12.134;2023-02-04T06:49:41;0.33;;;0.00;;
17710;SDS011;8975;57.718;12.134;2023-02-04T06:52:07;0.27;;;0.00;;
17710;SDS011;8975;57.718;12.134;2023-02-04T06:54:32;0.30;;;0.00;;
17710;SDS011;8975;57.718;12.134;2023-02-04T06:56:58;0.20;;;0.00;;
17710;SDS011;8975;57.718;12.134;2023-02-04T06:59:31;0.50;;;0.00;;
17710;SDS011;8975;57.718;12.134;2023-02-04T07:02:00;0.30;;;0.00;;
17710;SDS011;8975;57.718;12.134;2023-02-04T07:04:26;0.40;;;0.00;;
17710;SDS011;8975;57.718;12.134;2023-02-04T07:06:51;0.20;;;0.00;;
17710;SDS011;8975;57.718;12.134;2023-02-04T07:09:17;0.20;;;0.00;;
17710;SDS011;8975;57.718;12.134;2023-02-04T07:11:42;0.40;;;0.00;;
17710;SDS011;8975;57.718;12.134;2023-02-04T07:14:08;0.93;;;0.00;;
17710;SDS011;8975;57.718;12.134;2023-02-04T07:16:34;0.43;;;0.00;;
17710;SDS011;8975;57.718;12.134;2023-02-04T07:19:00;0.47;;;0.00;;
17710;SDS011;8975;57.718;12.134;2023-02-04T07:21:26;0.17;;;0.00;;
17710;SDS011;8975;57.718;12.134;2023-02-04T07:23:51;0.60;;;0.00;;
17710;SDS011;8975;57.718;12.134;2023-02-04T07:26:17;0.43;;;0.00;;
17710;SDS011;8975;57.718;12.134;2023-02-04T07:28:42;0.67;;;0.00;;
17710;SDS011;8975;57.718;12.134;2023-02-04T07:31:08;0.30;;;0.00;;
17710;SDS011;8975;57.718;12.134;2023-02-04T07:33:33;0.50;;;0.00;;
17710;SDS011;8975;57.718;12.134;2023-02-04T07:35:59;0.30;;;0.00;;
17710;SDS011;8975;57.718;12.134;2023-02-04T07:38:24;0.50;;;0.00;;
17710;SDS011;8975;57.718;12.134;2023-02-04T07:40:50;0.70;;;0.00;;
17710;SDS011;8975;57.718;12.134;2023-02-04T07:43:15;0.40;;;0.00;;
17710;SDS011;8975;57.718;12.134;2023-02-04T07:45:41;2.90;;;0.00;;
17710;SDS011;8975;57.718;12.134;2023-02-04T07:48:06;0.50;;;0.00;;
17710;SDS011;8975;57.718;12.134;2023-02-04T07:50:31;1.30;;;0.00;;
17710;SDS011;8975;57.718;12.134;2023-02-04T07:52:57;0.60;;;0.00;;
17710;SDS011;8975;57.718;12.134;2023-02-04T07:55:22;1.00;;;0.00;;
17710;SDS011;8975;57.718;12.134;2023-02-04T07:57:48;0.67;;;0.00;;
17710;SDS011;8975;57.718;12.134;2023-02-04T08:00:14;1.00;;;0.00;;
17710;SDS011;8975;57.718;12.134;2023-02-04T08:02:40;1.00;;;0.00;;
17710;SDS011;8975;57.718;12.134;2023-02-04T08:05:06;0.60;;;0.00;;
17710;SDS011;8975;57.718;12.134;2023-02-04T08:07:32;0.53;;;0.00;;
17710;SDS011;8975;57.718;12.134;2023-02-04T08:09:58;0.50;;;0.00;;
17710;SDS011;8975;57.718;12.134;2023-02-04T08:12:23;0.63;;;0.00;;
17710;SDS011;8975;57.718;12.134;2023-02-04T08:14:49;0.50;;;0.00;;
17710;SDS011;8975;57.718;12.134;2023-02-04T08:17:14;0.70;;;0.00;;
17710;SDS011;8975;57.718;12.134;2023-02-04T08:19:39;0.77;;;0.00;;
17710;SDS011;8975;57.718;12.134;2023-02-04T08:22:05;0.60;;;0.00;;
17710;SDS011;8975;57.718;12.134;2023-02-04T08:24:30;0.80;;;0.00;;
17710;SDS011;8975;57.718;12.134;2023-02-04T08:26:56;0.90;;;0.00;;
17710;SDS011;8975;57.718;12.134;2023-02-04T08:29:22;1.37;;;0.00;;
17710;SDS011;8975;57.718;12.134;2023-02-04T08:31:49;2.33;;;0.00;;
17710;SDS011;8975;57.718;12.134;2023-02-04T08:34:15;1.93;;;0.00;;
17710;SDS011;8975;57.718;12.134;2023-02-04T08:36:40;2.20;;;0.00;;
17710;SDS011;8975;57.718;12.134;2023-02-04T08:39:06;2.43;;;0.00;;
17710;SDS011;8975;57.718;12.134;2023-02-04T08:41:31;2.47;;;0.00;;
17710;SDS011;8975;57.718;12.134;2023-02-04T08:43:57;2.50;;;0.00;;
17710;SDS011;8975;57.718;12.134;2023-02-04T08:46:23;1.43;;;0.00;;
17710;SDS011;8975;57.718;12.134;2023-02-04T08:48:48;1.23;;;0.00;;
17710;SDS011;8975;57.718;12.134;2023-02-04T08:51:14;1.07;;;0.00;;
17710;SDS011;8975;57.718;12.134;2023-02-04T08:53:40;1.37;;;0.00;;
17710;SDS011;8975;57.718;12.134;2023-02-04T08:56:06;1.20;;;0.00;;
17710;SDS011;8975;57.718;12.134;2023-02-04T08:58:32;1.33;;;0.00;;
17710;SDS011;8975;57.718;12.134;2023-02-04T09:00:58;1.13;;;0.00;;
17710;SDS011;8975;57.718;12.134;2023-02-04T09:03:23;1.20;;;0.00;;
17710;SDS011;8975;57.718;12.134;2023-02-04T09:05:49;0.90;;;0.00;;
17710;SDS011;8975;57.718;12.134;2023-02-04T09:08:14;0.50;;;0.00;;
17710;SDS011;8975;57.718;12.134;2023-02-04T09:10:40;0.80;;;0.00;;
17710;SDS011;8975;57.718;12.134;2023-02-04T09:13:05;0.93;;;0.00;;
17710;SDS011;8975;57.718;12.134;2023-02-04T09:15:33;1.00;;;0.00;;
17710;SDS011;8975;57.718;12.134;2023-02-04T09:17:58;0.70;;;0.00;;
17710;SDS011;8975;57.718;12.134;2023-02-04T09:20:44;0.60;;;0.00;;
17710;SDS011;8975;57.718;12.134;2023-02-04T09:23:10;0.60;;;0.00;;
17710;SDS011;8975;57.718;12.134;2023-02-04T09:25:40;0.70;;;0.00;;
17710;SDS011;8975;57.718;12.134;2023-02-04T09:28:07;1.03;;;0.00;;
17710;SDS011;8975;57.718;12.134;2023-02-04T09:30:37;1.13;;;0.00;;
17710;SDS011;8975;57.718;12.134;2023-02-04T09:33:03;2.03;;;0.00;;
17710;SDS011;8975;57.718;12.134;2023-02-04T09:35:28;1.07;;;0.00;;
17710;SDS011;8975;57.718;12.134;2023-02-04T09:37:54;1.00;;;0.00;;
17710;SDS011;8975;57.718;12.134;2023-02-04T09:40:19;0.80;;;0.00;;
17710;SDS011;8975;57.718;12.134;2023-02-04T09:42:47;2.33;;;0.00;;
17710;SDS011;8975;57.718;12.134;2023-02-04T09:45:18;1.20;;;0.00;;
17710;SDS011;8975;57.718;12.134;2023-02-04T09:47:48;1.00;;;0.00;;
17710;SDS011;8975;57.718;12.134;2023-02-04T09:50:14;2.47;;;0.00;;
17710;SDS011;8975;57.718;12.134;2023-02-04T09:52:42;1.10;;;0.00;;
17710;SDS011;8975;57.718;12.134;2023-02-04T09:55:11;0.60;;;0.00;;
17710;SDS011;8975;57.718;12.134;2023-02-04T09:57:38;0.60;;;0.00;;
17710;SDS011;8975;57.718;12.134;2023-02-04T10:00:09;0.40;;;0.00;;
17710;SDS011;8975;57.718;12.134;2023-02-04T10:02:40;0.47;;;0.00;;
17710;SDS011;8975;57.718;12.134;2023-02-04T10:05:08;0.33;;;0.00;;
17710;SDS011;8975;57.718;12.134;2023-02-04T10:07:38;0.20;;;0.00;;
17710;SDS011;8975;57.718;12.134;2023-02-04T10:10:04;0.30;;;0.00;;
17710;SDS011;8975;57.718;12.134;2023-02-04T10:12:30;1.03;;;0.00;;
17710;SDS011;8975;57.718;12.134;2023-02-04T10:14:56;0.30;;;0.00;;
17710;SDS011;8975;57.718;12.134;2023-02-04T10:17:22;0.50;;;0.00;;
17710;SDS011;8975;57.718;12.134;2023-02-04T10:19:48;0.40;;;0.00;;
17710;SDS011;8975;57.718;12.134;2023-02-04T10:22:17;0.40;;;0.00;;
17710;SDS011;8975;57.718;12.134;2023-02-04T10:24:45;0.30;;;0.00;;
17710;SDS011;8975;57.718;12.134;2023-02-04T10:27:11;0.43;;;0.00;;
17710;SDS011;8975;57.718;12.134;2023-02-04T10:29:40;0.70;;;0.00;;
17710;SDS011;8975;57.718;12.134;2023-02-04T10:32:23;0.70;;;0.00;;
17710;SDS011;8975;57.718;12.134;2023-02-04T10:34:57;0.40;;;0.00;;
17710;SDS011;8975;57.718;12.134;2023-02-04T10:37:24;0.40;;;0.00;;
17710;SDS011;8975;57.718;12.134;2023-02-04T10:39:50;1.40;;;0.00;;
17710;SDS011;8975;57.718;12.134;2023-02-04T10:42:19;1.10;;;0.00;;
17710;SDS011;8975;57.718;12.134;2023-02-04T10:44:49;0.77;;;0.00;;
17710;SDS011;8975;57.718;12.134;2023-02-04T10:49:52;0.30;;;0.00;;
17710;SDS011;8975;57.718;12.134;2023-02-04T10:52:19;0.63;;;0.00;;
17710;SDS011;8975;57.718;12.134;2023-02-04T10:54:46;0.30;;;0.00;;
17710;SDS011;8975;57.718;12.134;2023-02-04T10:57:27;0.30;;;0.00;;
17710;SDS011;8975;57.718;12.134;2023-02-04T10:59:54;0.30;;;0.00;;
17710;SDS011;8975;57.718;12.134;2023-02-04T11:02:29;0.20;;;0.00;;
17710;SDS011;8975;57.718;12.134;2023-02-04T11:04:59;0.17;;;0.00;;
17710;SDS011;8975;57.718;12.134;2023-02-04T11:07:25;0.50;;;0.00;;
17710;SDS011;8975;57.718;12.134;2023-02-04T11:09:51;0.20;;;0.00;;
17710;SDS011;8975;57.718;12.134;2023-02-04T11:12:20;0.60;;;0.00;;
17710;SDS011;8975;57.718;12.134;2023-02-04T11:14:53;0.30;;;0.00;;
17710;SDS011;8975;57.718;12.134;2023-02-04T11:17:20;0.40;;;0.00;;
17710;SDS011;8975;57.718;12.134;2023-02-04T11:19:53;0.20;;;0.00;;
17710;SDS011;8975;57.718;12.134;2023-02-04T11:22:20;0.30;;;0.00;;
17710;SDS011;8975;57.718;12.134;2023-02-04T11:24:47;0.30;;;0.00;;
17710;SDS011;8975;57.718;12.134;2023-02-04T11:27:18;0.53;;;0.00;;
17710;SDS011;8975;57.718;12.134;2023-02-04T11:29:46;0.67;;;0.00;;
17710;SDS011;8975;57.718;12.134;2023-02-04T11:42:48;0.30;;;0.00;;
17710;SDS011;8975;57.718;12.134;2023-02-04T11:45:21;0.83;;;0.00;;
17710;SDS011;8975;57.718;12.134;2023-02-04T11:47:50;0.40;;;0.00;;
17710;SDS011;8975;57.718;12.134;2023-02-04T11:52:43;0.40;;;0.00;;
17710;SDS011;8975;57.718;12.134;2023-02-04T11:55:09;0.57;;;0.00;;
17710;SDS011;8975;57.718;12.134;2023-02-04T11:57:40;0.30;;;0.00;;
17710;SDS011;8975;57.718;12.134;2023-02-04T12:00:13;0.53;;;0.00;;
17710;SDS011;8975;57.718;12.134;2023-02-04T12:02:45;0.40;;;0.00;;
17710;SDS011;8975;57.718;12.134;2023-02-04T12:05:16;0.53;;;0.00;;
17710;SDS011;8975;57.718;12.134;2023-02-04T12:07:43;0.30;;;0.00;;
17710;SDS011;8975;57.718;12.134;2023-02-04T12:10:22;0.40;;;0.00;;
17710;SDS011;8975;57.718;12.134;2023-02-04T12:12:53;0.30;;;0.00;;
17710;SDS011;8975;57.718;12.134;2023-02-04T12:15:32;0.30;;;0.00;;
17710;SDS011;8975;57.718;12.134;2023-02-04T12:18:02;0.30;;;0.00;;
17710;SDS011;8975;57.718;12.134;2023-02-04T12:20:32;1.43;;;0.00;;
17710;SDS011;8975;57.718;12.134;2023-02-04T12:22:58;0.20;;;0.00;;
17710;SDS011;8975;57.718;12.134;2023-02-04T12:25:23;0.40;;;0.00;;
17710;SDS011;8975;57.718;12.134;2023-02-04T12:27:50;0.43;;;0.00;;
17710;SDS011;8975;57.718;12.134;2023-02-04T12:30:18;0.40;;;0.00;;
17710;SDS011;8975;57.718;12.134;2023-02-04T12:32:44;0.50;;;0.00;;
17710;SDS011;8975;57.718;12.134;2023-02-04T12:35:10;0.50;;;0.00;;
17710;SDS011;8975;57.718;12.134;2023-02-04T12:37:35;0.80;;;0.00;;
17710;SDS011;8975;57.718;12.134;2023-02-04T12:40:01;1.23;;;0.00;;
17710;SDS011;8975;57.718;12.134;2023-02-04T12:42:26;0.23;;;0.00;;
17710;SDS011;8975;57.718;12.134;2023-02-04T12:44:51;0.60;;;0.00;;
17710;SDS011;8975;57.718;12.134;2023-02-04T12:47:17;0.50;;;0.00;;
17710;SDS011;8975;57.718;12.134;2023-02-04T12:49:42;1.03;;;0.00;;
17710;SDS011;8975;57.718;12.134;2023-02-04T12:52:08;0.83;;;0.00;;
17710;SDS011;8975;57.718;12.134;2023-02-04T12:54:33;0.30;;;0.00;;
17710;SDS011;8975;57.718;12.134;2023-02-04T12:56:59;0.20;;;0.00;;
17710;SDS011;8975;57.718;12.134;2023-02-04T12:59:26;0.20;;;0.00;;
17710;SDS011;8975;57.718;12.134;2023-02-04T13:01:52;0.20;;;0.00;;
17710;SDS011;8975;57.718;12.134;2023-02-04T13:04:18;0.40;;;0.00;;
17710;SDS011;8975;57.718;12.134;2023-02-04T13:06:43;0.70;;;0.00;;
17710;SDS011;8975;57.718;12.134;2023-02-04T13:09:09;0.60;;;0.00;;
17710;SDS011;8975;57.718;12.134;2023-02-04T13:11:34;0.30;;;0.00;;
17710;SDS011;8975;57.718;12.134;2023-02-04T13:13:59;0.90;;;0.00;;
17710;SDS011;8975;57.718;12.134;2023-02-04T13:16:25;0.10;;;0.00;;
17710;SDS011;8975;57.718;12.134;2023-02-04T13:18:50;0.43;;;0.00;;
17710;SDS011;8975;57.718;12.134;2023-02-04T13:21:16;0.43;;;0.00;;
17710;SDS011;8975;57.718;12.134;2023-02-04T13:23:42;0.90;;;0.00;;
17710;SDS011;8975;57.718;12.134;2023-02-04T13:26:07;0.37;;;0.00;;
17710;SDS011;8975;57.718;12.134;2023-02-04T13:28:34;0.67;;;0.00;;
17710;SDS011;8975;57.718;12.134;2023-02-04T13:31:00;0.40;;;0.00;;
17710;SDS011;8975;57.718;12.134;2023-02-04T13:33:26;0.17;;;0.00;;
17710;SDS011;8975;57.718;12.134;2023-02-04T13:35:51;0.20;;;0.00;;
17710;SDS011;8975;57.718;12.134;2023-02-04T13:38:16;0.20;;;0.00;;
17710;SDS011;8975;57.718;12.134;2023-02-04T13:40:42;0.50;;;0.00;;
17710;SDS011;8975;57.718;12.134;2023-02-04T13:43:07;0.93;;;0.00;;
17710;SDS011;8975;57.718;12.134;2023-02-04T13:45:33;0.37;;;0.00;;
17710;SDS011;8975;57.718;12.134;2023-02-04T13:47:58;0.47;;;0.00;;
17710;SDS011;8975;57.718;12.134;2023-02-04T13:50:24;0.47;;;0.00;;
17710;SDS011;8975;57.718;12.134;2023-02-04T13:52:49;0.60;;;0.00;;
17710;SDS011;8975;57.718;12.134;2023-02-04T13:55:15;0.63;;;0.00;;
17710;SDS011;8975;57.718;12.134;2023-02-04T13:57:40;0.40;;;0.00;;
17710;SDS011;8975;57.718;12.134;2023-02-04T14:00:06;0.47;;;0.00;;
17710;SDS011;8975;57.718;12.134;2023-02-04T14:02:32;0.30;;;0.00;;
17710;SDS011;8975;57.718;12.134;2023-02-04T14:04:58;0.30;;;0.00;;
17710;SDS011;8975;57.718;12.134;2023-02-04T14:07:23;0.93;;;0.00;;
17710;SDS011;8975;57.718;12.134;2023-02-04T14:09:49;0.20;;;0.00;;
17710;SDS011;8975;57.718;12.134;2023-02-04T14:12:14;0.20;;;0.00;;
17710;SDS011;8975;57.718;12.134;2023-02-04T14:14:40;0.40;;;0.00;;
17710;SDS011;8975;57.718;12.134;2023-02-04T14:17:05;0.47;;;0.00;;
17710;SDS011;8975;57.718;12.134;2023-02-04T14:19:31;0.93;;;0.00;;
17710;SDS011;8975;57.718;12.134;2023-02-04T14:21:56;0.40;;;0.00;;
17710;SDS011;8975;57.718;12.134;2023-02-04T14:24:22;0.30;;;0.00;;
17710;SDS011;8975;57.718;12.134;2023-02-04T14:26:48;0.30;;;0.00;;
17710;SDS011;8975;57.718;12.134;2023-02-04T14:29:14;0.57;;;0.00;;
17710;SDS011;8975;57.718;12.134;2023-02-04T14:31:39;0.40;;;0.00;;
17710;SDS011;8975;57.718;12.134;2023-02-04T14:34:05;0.40;;;0.00;;
17710;SDS011;8975;57.718;12.134;2023-02-04T14:36:30;0.30;;;0.00;;
17710;SDS011;8975;57.718;12.134;2023-02-04T14:38:56;0.30;;;0.00;;
17710;SDS011;8975;57.718;12.134;2023-02-04T14:41:21;0.60;;;0.00;;
17710;SDS011;8975;57.718;12.134;2023-02-04T14:43:46;0.50;;;0.00;;
17710;SDS011;8975;57.718;12.134;2023-02-04T14:46:12;0.20;;;0.00;;
17710;SDS011;8975;57.718;12.134;2023-02-04T14:48:37;0.60;;;0.00;;
17710;SDS011;8975;57.718;12.134;2023-02-04T14:51:03;0.20;;;0.00;;
17710;SDS011;8975;57.718;12.134;2023-02-04T14:53:29;0.40;;;0.00;;
17710;SDS011;8975;57.718;12.134;2023-02-04T14:55:55;0.70;;;0.00;;
17710;SDS011;8975;57.718;12.134;2023-02-04T14:58:20;0.30;;;0.00;;
17710;SDS011;8975;57.718;12.134;2023-02-04T15:00:46;0.23;;;0.00;;